Capitol Logistics 18




PANC
Ted Stevens Anchorage International Airport
Anchorage, Alaska
RCTP
Taiwan Taoyuan International Airport
Taipei,

Activity Log

Date Flight Route Aircraft Duration
03/17/2021 CPX18 NODLE R220 NANNO ALICE Y111 MQE Y124 GTC Y12 KEC A1 AISAR A1 DRAKE DRAKE1A B744 10h 22m

Route Details

Aircraft Information
Group: Large Widebodies
Types: B744,MD11
Route Data
Demand: L
Distance: 4065nm
Duration: 10h 00m
Recm'd Route: NODLE R220 NANNO ALICE Y111 MQE Y124 GTC Y12 KEC A1 AISAR A1 DRAKE DRAKE1A
Origin Wx: PANC 252204Z 19003KT 1 1/2SM R07R/2600V6000FT -SN BR BKN029 BKN036 OVC050 00/M03 A3006 RMK AO2 P0000 T00001028
Dest. Wx: RCTP 252200Z 03006KT 9999 FEW015 SCT065 18/17 Q1017 NOSIG RMK A3005
Notes:

Financial History
Total Freight: 85,590lbs
Average Load: 85,590lbs/flt
Fuel Used: 201,732lbs
Avg. Fuel Used: 201,732lbs/flt
Fuel Expense: $262,252
Avg. Fuel Expense: $262,252
Avg. Fuel Cost: $1.30/lbs
Total Gross Income: $187,442
Pilot Pay: $229
Total Expenses: $20,296
Total Revenue: $-97,583
Average Revenue: $187,442.00